sensor_id;sensor_type;location;lat;lon;timestamp;P1;durP1;ratioP1;P2;durP2;ratioP2
16634;SDS011;8431;52.458;9.998;2023-11-21T00:53:48;17.90;;;16.23;;
16634;SDS011;8431;52.458;9.998;2023-11-21T00:56:16;20.45;;;16.73;;
16634;SDS011;8431;52.458;9.998;2023-11-21T00:58:43;18.88;;;17.10;;
16634;SDS011;8431;52.458;9.998;2023-11-21T01:01:14;20.85;;;16.65;;
16634;SDS011;8431;52.458;9.998;2023-11-21T01:03:41;21.13;;;17.38;;
16634;SDS011;8431;52.458;9.998;2023-11-21T01:06:09;21.08;;;16.65;;
16634;SDS011;8431;52.458;9.998;2023-11-21T01:08:36;20.73;;;17.23;;
16634;SDS011;8431;52.458;9.998;2023-11-21T01:11:05;21.10;;;17.17;;
16634;SDS011;8431;52.458;9.998;2023-11-21T01:13:33;19.02;;;17.08;;
16634;SDS011;8431;52.458;9.998;2023-11-21T01:16:00;19.75;;;17.65;;
16634;SDS011;8431;52.458;9.998;2023-11-21T01:18:28;21.77;;;17.70;;
16634;SDS011;8431;52.458;9.998;2023-11-21T01:20:56;21.83;;;18.13;;
16634;SDS011;8431;52.458;9.998;2023-11-21T01:23:23;25.17;;;18.08;;
16634;SDS011;8431;52.458;9.998;2023-11-21T01:25:50;25.85;;;17.40;;
16634;SDS011;8431;52.458;9.998;2023-11-21T01:28:18;20.55;;;18.33;;
16634;SDS011;8431;52.458;9.998;2023-11-21T01:30:46;19.45;;;17.42;;
16634;SDS011;8431;52.458;9.998;2023-11-21T01:33:13;23.75;;;19.20;;
16634;SDS011;8431;52.458;9.998;2023-11-21T01:35:40;24.77;;;18.77;;
16634;SDS011;8431;52.458;9.998;2023-11-21T01:38:07;22.48;;;18.80;;
16634;SDS011;8431;52.458;9.998;2023-11-21T01:40:35;24.38;;;19.23;;
16634;SDS011;8431;52.458;9.998;2023-11-21T01:43:02;21.88;;;18.77;;
16634;SDS011;8431;52.458;9.998;2023-11-21T01:45:31;26.27;;;18.30;;
16634;SDS011;8431;52.458;9.998;2023-11-21T01:47:58;23.10;;;18.83;;
16634;SDS011;8431;52.458;9.998;2023-11-21T01:50:26;26.90;;;19.42;;
16634;SDS011;8431;52.458;9.998;2023-11-21T01:52:54;29.48;;;20.55;;
16634;SDS011;8431;52.458;9.998;2023-11-21T01:55:22;25.50;;;20.25;;
16634;SDS011;8431;52.458;9.998;2023-11-21T01:57:49;23.95;;;19.52;;
16634;SDS011;8431;52.458;9.998;2023-11-21T02:00:17;24.70;;;20.00;;
16634;SDS011;8431;52.458;9.998;2023-11-21T02:02:58;22.50;;;19.42;;
16634;SDS011;8431;52.458;9.998;2023-11-21T02:05:25;24.35;;;19.17;;
16634;SDS011;8431;52.458;9.998;2023-11-21T02:07:52;25.80;;;20.00;;
16634;SDS011;8431;52.458;9.998;2023-11-21T02:10:19;30.55;;;20.08;;
16634;SDS011;8431;52.458;9.998;2023-11-21T02:12:48;30.75;;;19.25;;
16634;SDS011;8431;52.458;9.998;2023-11-21T02:15:16;21.50;;;19.42;;
16634;SDS011;8431;52.458;9.998;2023-11-21T02:17:45;28.42;;;19.67;;
16634;SDS011;8431;52.458;9.998;2023-11-21T02:20:17;24.88;;;19.05;;
16634;SDS011;8431;52.458;9.998;2023-11-21T02:22:48;23.67;;;20.50;;
16634;SDS011;8431;52.458;9.998;2023-11-21T02:25:17;29.13;;;20.70;;
16634;SDS011;8431;52.458;9.998;2023-11-21T02:27:44;32.38;;;20.42;;
16634;SDS011;8431;52.458;9.998;2023-11-21T02:30:13;27.20;;;20.83;;
16634;SDS011;8431;52.458;9.998;2023-11-21T02:32:42;33.95;;;20.83;;
16634;SDS011;8431;52.458;9.998;2023-11-21T02:35:09;29.98;;;21.50;;
16634;SDS011;8431;52.458;9.998;2023-11-21T02:37:37;35.17;;;22.52;;
16634;SDS011;8431;52.458;9.998;2023-11-21T02:40:08;30.63;;;21.55;;
16634;SDS011;8431;52.458;9.998;2023-11-21T02:42:37;31.77;;;20.13;;
16634;SDS011;8431;52.458;9.998;2023-11-21T02:45:05;29.63;;;21.55;;
16634;SDS011;8431;52.458;9.998;2023-11-21T02:47:32;29.52;;;20.95;;
16634;SDS011;8431;52.458;9.998;2023-11-21T02:49:59;28.40;;;21.40;;
16634;SDS011;8431;52.458;9.998;2023-11-21T02:52:26;25.15;;;21.70;;
16634;SDS011;8431;52.458;9.998;2023-11-21T02:54:54;34.45;;;21.90;;
16634;SDS011;8431;52.458;9.998;2023-11-21T02:57:22;31.58;;;20.75;;
16634;SDS011;8431;52.458;9.998;2023-11-21T02:59:49;23.15;;;20.63;;
16634;SDS011;8431;52.458;9.998;2023-11-21T03:02:17;28.33;;;19.13;;
16634;SDS011;8431;52.458;9.998;2023-11-21T03:04:44;29.98;;;20.05;;
16634;SDS011;8431;52.458;9.998;2023-11-21T03:07:13;27.70;;;19.02;;
16634;SDS011;8431;52.458;9.998;2023-11-21T03:09:44;29.73;;;20.25;;
16634;SDS011;8431;52.458;9.998;2023-11-21T03:12:11;26.83;;;19.73;;
16634;SDS011;8431;52.458;9.998;2023-11-21T03:14:40;32.45;;;21.42;;
16634;SDS011;8431;52.458;9.998;2023-11-21T03:17:07;29.48;;;21.20;;
16634;SDS011;8431;52.458;9.998;2023-11-21T03:19:34;25.15;;;20.63;;
16634;SDS011;8431;52.458;9.998;2023-11-21T03:22:01;24.85;;;20.52;;
16634;SDS011;8431;52.458;9.998;2023-11-21T03:24:29;33.47;;;22.00;;
16634;SDS011;8431;52.458;9.998;2023-11-21T03:26:56;37.92;;;22.67;;
16634;SDS011;8431;52.458;9.998;2023-11-21T03:29:23;28.73;;;21.50;;
16634;SDS011;8431;52.458;9.998;2023-11-21T03:31:52;31.35;;;22.52;;
16634;SDS011;8431;52.458;9.998;2023-11-21T03:34:23;32.42;;;22.98;;
16634;SDS011;8431;52.458;9.998;2023-11-21T03:36:51;42.72;;;28.15;;
16634;SDS011;8431;52.458;9.998;2023-11-21T03:39:19;46.92;;;32.15;;
16634;SDS011;8431;52.458;9.998;2023-11-21T03:41:47;70.60;;;41.80;;
16634;SDS011;8431;52.458;9.998;2023-11-21T03:44:14;73.93;;;44.17;;
16634;SDS011;8431;52.458;9.998;2023-11-21T03:46:42;41.38;;;25.90;;
16634;SDS011;8431;52.458;9.998;2023-11-21T03:49:11;36.45;;;23.85;;
16634;SDS011;8431;52.458;9.998;2023-11-21T03:51:38;34.90;;;23.15;;
16634;SDS011;8431;52.458;9.998;2023-11-21T03:54:05;32.72;;;24.15;;
16634;SDS011;8431;52.458;9.998;2023-11-21T03:56:33;33.03;;;23.10;;
16634;SDS011;8431;52.458;9.998;2023-11-21T03:59:00;39.67;;;27.75;;
16634;SDS011;8431;52.458;9.998;2023-11-21T04:01:28;35.72;;;25.02;;
16634;SDS011;8431;52.458;9.998;2023-11-21T04:03:55;32.03;;;23.35;;
16634;SDS011;8431;52.458;9.998;2023-11-21T04:06:24;38.85;;;25.63;;
16634;SDS011;8431;52.458;9.998;2023-11-21T04:08:51;33.58;;;24.10;;
16634;SDS011;8431;52.458;9.998;2023-11-21T04:11:18;32.15;;;23.10;;
16634;SDS011;8431;52.458;9.998;2023-11-21T04:13:45;33.38;;;23.92;;
16634;SDS011;8431;52.458;9.998;2023-11-21T04:16:13;33.25;;;24.60;;
16634;SDS011;8431;52.458;9.998;2023-11-21T04:18:40;32.83;;;24.23;;
16634;SDS011;8431;52.458;9.998;2023-11-21T04:21:07;32.83;;;24.73;;
16634;SDS011;8431;52.458;9.998;2023-11-21T04:23:36;36.78;;;23.92;;
16634;SDS011;8431;52.458;9.998;2023-11-21T04:26:05;33.53;;;25.10;;
16634;SDS011;8431;52.458;9.998;2023-11-21T04:28:32;37.17;;;26.10;;
16634;SDS011;8431;52.458;9.998;2023-11-21T04:30:59;40.95;;;24.83;;
16634;SDS011;8431;52.458;9.998;2023-11-21T04:33:27;32.70;;;24.50;;
16634;SDS011;8431;52.458;9.998;2023-11-21T04:35:54;38.40;;;25.52;;
16634;SDS011;8431;52.458;9.998;2023-11-21T04:38:21;32.95;;;24.50;;
16634;SDS011;8431;52.458;9.998;2023-11-21T04:40:50;33.63;;;24.38;;
16634;SDS011;8431;52.458;9.998;2023-11-21T04:43:17;35.65;;;25.10;;
16634;SDS011;8431;52.458;9.998;2023-11-21T04:45:44;35.22;;;25.10;;
16634;SDS011;8431;52.458;9.998;2023-11-21T04:48:11;29.33;;;23.77;;
16634;SDS011;8431;52.458;9.998;2023-11-21T04:50:39;30.83;;;24.30;;
16634;SDS011;8431;52.458;9.998;2023-11-21T04:53:06;30.40;;;21.90;;
16634;SDS011;8431;52.458;9.998;2023-11-21T04:55:33;31.77;;;22.40;;
16634;SDS011;8431;52.458;9.998;2023-11-21T04:58:02;26.90;;;22.02;;
16634;SDS011;8431;52.458;9.998;2023-11-21T05:00:29;28.52;;;23.38;;
16634;SDS011;8431;52.458;9.998;2023-11-21T05:02:57;30.73;;;23.63;;
16634;SDS011;8431;52.458;9.998;2023-11-21T05:05:26;29.55;;;23.38;;
16634;SDS011;8431;52.458;9.998;2023-11-21T05:07:54;31.75;;;21.98;;
16634;SDS011;8431;52.458;9.998;2023-11-21T05:10:22;25.92;;;21.50;;
16634;SDS011;8431;52.458;9.998;2023-11-21T05:12:49;26.92;;;22.05;;
16634;SDS011;8431;52.458;9.998;2023-11-21T05:15:17;24.23;;;21.35;;
16634;SDS011;8431;52.458;9.998;2023-11-21T05:17:46;28.73;;;22.27;;
16634;SDS011;8431;52.458;9.998;2023-11-21T05:20:15;26.52;;;20.48;;
16634;SDS011;8431;52.458;9.998;2023-11-21T05:22:46;25.95;;;21.48;;
16634;SDS011;8431;52.458;9.998;2023-11-21T05:25:13;26.00;;;20.52;;
16634;SDS011;8431;52.458;9.998;2023-11-21T05:27:42;23.20;;;20.13;;
16634;SDS011;8431;52.458;9.998;2023-11-21T05:30:09;24.45;;;19.60;;
16634;SDS011;8431;52.458;9.998;2023-11-21T05:32:38;23.75;;;18.85;;
16634;SDS011;8431;52.458;9.998;2023-11-21T05:35:07;29.35;;;21.17;;
16634;SDS011;8431;52.458;9.998;2023-11-21T05:37:39;23.42;;;20.98;;
16634;SDS011;8431;52.458;9.998;2023-11-21T05:40:06;24.15;;;21.38;;
16634;SDS011;8431;52.458;9.998;2023-11-21T05:42:35;29.00;;;25.92;;
16634;SDS011;8431;52.458;9.998;2023-11-21T05:45:04;28.27;;;25.45;;
16634;SDS011;8431;52.458;9.998;2023-11-21T05:47:35;25.52;;;23.10;;
16634;SDS011;8431;52.458;9.998;2023-11-21T05:50:05;14.40;;;13.07;;
16634;SDS011;8431;52.458;9.998;2023-11-21T05:52:34;12.48;;;11.55;;
16634;SDS011;8431;52.458;9.998;2023-11-21T05:55:02;10.55;;;9.77;;
16634;SDS011;8431;52.458;9.998;2023-11-21T05:57:32;11.45;;;10.52;;
16634;SDS011;8431;52.458;9.998;2023-11-21T06:00:01;11.35;;;10.45;;
16634;SDS011;8431;52.458;9.998;2023-11-21T06:02:36;11.90;;;10.68;;
16634;SDS011;8431;52.458;9.998;2023-11-21T06:05:04;11.73;;;10.82;;
16634;SDS011;8431;52.458;9.998;2023-11-21T06:07:32;12.48;;;11.38;;
16634;SDS011;8431;52.458;9.998;2023-11-21T06:09:59;12.82;;;11.88;;
16634;SDS011;8431;52.458;9.998;2023-11-21T06:12:27;12.25;;;11.43;;
16634;SDS011;8431;52.458;9.998;2023-11-21T06:14:55;12.50;;;11.60;;
16634;SDS011;8431;52.458;9.998;2023-11-21T06:17:22;12.32;;;11.13;;
16634;SDS011;8431;52.458;9.998;2023-11-21T06:19:50;11.45;;;10.35;;
16634;SDS011;8431;52.458;9.998;2023-11-21T06:22:19;12.40;;;11.27;;
16634;SDS011;8431;52.458;9.998;2023-11-21T06:24:46;11.35;;;10.55;;
16634;SDS011;8431;52.458;9.998;2023-11-21T06:27:13;11.88;;;10.75;;
16634;SDS011;8431;52.458;9.998;2023-11-21T06:29:41;12.43;;;11.52;;
16634;SDS011;8431;52.458;9.998;2023-11-21T06:32:08;12.63;;;11.48;;
16634;SDS011;8431;52.458;9.998;2023-11-21T06:34:35;13.40;;;12.20;;
16634;SDS011;8431;52.458;9.998;2023-11-21T06:37:03;11.95;;;10.80;;
16634;SDS011;8431;52.458;9.998;2023-11-21T06:39:32;10.23;;;9.15;;
16634;SDS011;8431;52.458;9.998;2023-11-21T06:42:00;11.90;;;10.70;;
16634;SDS011;8431;52.458;9.998;2023-11-21T06:44:29;12.15;;;11.15;;
16634;SDS011;8431;52.458;9.998;2023-11-21T06:46:58;11.00;;;10.10;;
16634;SDS011;8431;52.458;9.998;2023-11-21T06:49:25;11.30;;;10.50;;
16634;SDS011;8431;52.458;9.998;2023-11-21T06:51:52;11.77;;;10.73;;
16634;SDS011;8431;52.458;9.998;2023-11-21T06:54:20;11.85;;;10.80;;
16634;SDS011;8431;52.458;9.998;2023-11-21T06:56:49;10.95;;;10.05;;
16634;SDS011;8431;52.458;9.998;2023-11-21T06:59:18;11.48;;;10.43;;
16634;SDS011;8431;52.458;9.998;2023-11-21T07:01:45;12.23;;;11.00;;
16634;SDS011;8431;52.458;9.998;2023-11-21T07:04:12;12.90;;;10.48;;
16634;SDS011;8431;52.458;9.998;2023-11-21T07:06:40;12.15;;;10.73;;
16634;SDS011;8431;52.458;9.998;2023-11-21T07:09:08;13.93;;;10.82;;
16634;SDS011;8431;52.458;9.998;2023-11-21T07:11:36;12.85;;;11.45;;
16634;SDS011;8431;52.458;9.998;2023-11-21T07:14:05;12.15;;;11.05;;
16634;SDS011;8431;52.458;9.998;2023-11-21T07:16:34;11.93;;;10.93;;
16634;SDS011;8431;52.458;9.998;2023-11-21T07:19:02;13.23;;;12.13;;
16634;SDS011;8431;52.458;9.998;2023-11-21T07:21:31;10.88;;;10.07;;
16634;SDS011;8431;52.458;9.998;2023-11-21T07:23:58;12.15;;;11.15;;
16634;SDS011;8431;52.458;9.998;2023-11-21T07:26:26;12.32;;;11.23;;
16634;SDS011;8431;52.458;9.998;2023-11-21T07:29:04;12.85;;;11.50;;
16634;SDS011;8431;52.458;9.998;2023-11-21T07:31:32;11.90;;;10.70;;
16634;SDS011;8431;52.458;9.998;2023-11-21T07:34:00;13.10;;;11.93;;
16634;SDS011;8431;52.458;9.998;2023-11-21T07:36:27;13.88;;;12.48;;
16634;SDS011;8431;52.458;9.998;2023-11-21T07:38:54;15.63;;;13.25;;
16634;SDS011;8431;52.458;9.998;2023-11-21T07:41:32;14.15;;;12.88;;
16634;SDS011;8431;52.458;9.998;2023-11-21T07:43:59;14.90;;;13.40;;
16634;SDS011;8431;52.458;9.998;2023-11-21T07:46:27;13.40;;;12.10;;
16634;SDS011;8431;52.458;9.998;2023-11-21T07:48:55;11.27;;;10.18;;
16634;SDS011;8431;52.458;9.998;2023-11-21T07:51:23;14.10;;;11.88;;
16634;SDS011;8431;52.458;9.998;2023-11-21T07:53:50;13.52;;;12.27;;
16634;SDS011;8431;52.458;9.998;2023-11-21T07:56:17;14.55;;;13.15;;
16634;SDS011;8431;52.458;9.998;2023-11-21T07:58:44;14.68;;;13.27;;
16634;SDS011;8431;52.458;9.998;2023-11-21T08:01:11;15.32;;;13.88;;
16634;SDS011;8431;52.458;9.998;2023-11-21T08:03:42;15.48;;;14.10;;
16634;SDS011;8431;52.458;9.998;2023-11-21T08:06:10;16.05;;;14.55;;
16634;SDS011;8431;52.458;9.998;2023-11-21T08:08:38;15.27;;;13.82;;
16634;SDS011;8431;52.458;9.998;2023-11-21T08:11:05;15.30;;;13.77;;
16634;SDS011;8431;52.458;9.998;2023-11-21T08:13:33;16.02;;;14.10;;
16634;SDS011;8431;52.458;9.998;2023-11-21T08:16:00;15.68;;;14.10;;
16634;SDS011;8431;52.458;9.998;2023-11-21T08:18:29;14.77;;;13.48;;
16634;SDS011;8431;52.458;9.998;2023-11-21T08:20:57;15.30;;;13.88;;
16634;SDS011;8431;52.458;9.998;2023-11-21T08:23:25;13.75;;;12.45;;
16634;SDS011;8431;52.458;9.998;2023-11-21T08:25:53;13.80;;;12.60;;
16634;SDS011;8431;52.458;9.998;2023-11-21T08:28:21;13.25;;;12.15;;
16634;SDS011;8431;52.458;9.998;2023-11-21T08:30:51;15.02;;;12.90;;
16634;SDS011;8431;52.458;9.998;2023-11-21T08:33:19;13.50;;;12.27;;
16634;SDS011;8431;52.458;9.998;2023-11-21T08:35:46;14.40;;;13.20;;
16634;SDS011;8431;52.458;9.998;2023-11-21T08:38:13;13.10;;;12.00;;
16634;SDS011;8431;52.458;9.998;2023-11-21T08:40:42;12.73;;;11.57;;
16634;SDS011;8431;52.458;9.998;2023-11-21T08:43:09;13.18;;;12.07;;
16634;SDS011;8431;52.458;9.998;2023-11-21T08:45:37;14.70;;;12.50;;
16634;SDS011;8431;52.458;9.998;2023-11-21T08:48:04;11.93;;;11.02;;
16634;SDS011;8431;52.458;9.998;2023-11-21T08:50:31;14.00;;;12.60;;
16634;SDS011;8431;52.458;9.998;2023-11-21T08:52:59;11.57;;;10.57;;
16634;SDS011;8431;52.458;9.998;2023-11-21T08:55:26;12.55;;;11.52;;
16634;SDS011;8431;52.458;9.998;2023-11-21T08:57:55;11.88;;;10.98;;
16634;SDS011;8431;52.458;9.998;2023-11-21T09:00:24;13.07;;;11.90;;
16634;SDS011;8431;52.458;9.998;2023-11-21T09:02:51;13.23;;;12.23;;
16634;SDS011;8431;52.458;9.998;2023-11-21T09:05:18;12.75;;;11.75;;
16634;SDS011;8431;52.458;9.998;2023-11-21T09:07:45;15.45;;;14.15;;
16634;SDS011;8431;52.458;9.998;2023-11-21T09:10:14;12.13;;;11.23;;
16634;SDS011;8431;52.458;9.998;2023-11-21T09:12:41;15.35;;;12.90;;
16634;SDS011;8431;52.458;9.998;2023-11-21T09:15:10;13.35;;;12.30;;
16634;SDS011;8431;52.458;9.998;2023-11-21T09:17:38;12.45;;;11.52;;
16634;SDS011;8431;52.458;9.998;2023-11-21T09:20:06;12.93;;;11.73;;
16634;SDS011;8431;52.458;9.998;2023-11-21T09:22:35;11.32;;;10.43;;
16634;SDS011;8431;52.458;9.998;2023-11-21T09:25:02;12.70;;;11.63;;
16634;SDS011;8431;52.458;9.998;2023-11-21T09:27:30;11.00;;;10.10;;
16634;SDS011;8431;52.458;9.998;2023-11-21T09:29:58;11.90;;;10.88;;
16634;SDS011;8431;52.458;9.998;2023-11-21T09:32:26;11.38;;;10.38;;
16634;SDS011;8431;52.458;9.998;2023-11-21T09:34:55;11.65;;;10.75;;
16634;SDS011;8431;52.458;9.998;2023-11-21T09:37:23;12.80;;;11.90;;
16634;SDS011;8431;52.458;9.998;2023-11-21T09:39:52;13.60;;;12.57;;
16634;SDS011;8431;52.458;9.998;2023-11-21T09:42:25;12.65;;;11.52;;
16634;SDS011;8431;52.458;9.998;2023-11-21T09:44:54;12.15;;;11.35;;
16634;SDS011;8431;52.458;9.998;2023-11-21T09:47:27;11.40;;;10.70;;
16634;SDS011;8431;52.458;9.998;2023-11-21T09:49:55;11.48;;;10.65;;
16634;SDS011;8431;52.458;9.998;2023-11-21T09:52:26;10.82;;;10.00;;
16634;SDS011;8431;52.458;9.998;2023-11-21T09:54:53;11.52;;;10.50;;
16634;SDS011;8431;52.458;9.998;2023-11-21T10:00:08;11.93;;;10.93;;
16634;SDS011;8431;52.458;9.998;2023-11-21T10:02:38;10.93;;;10.32;;
16634;SDS011;8431;52.458;9.998;2023-11-21T10:05:06;11.68;;;10.95;;
16634;SDS011;8431;52.458;9.998;2023-11-21T10:07:35;13.20;;;11.93;;
16634;SDS011;8431;52.458;9.998;2023-11-21T10:10:03;11.40;;;10.70;;
16634;SDS011;8431;52.458;9.998;2023-11-21T10:12:31;12.23;;;11.38;;
16634;SDS011;8431;52.458;9.998;2023-11-21T10:15:00;10.32;;;9.52;;
16634;SDS011;8431;52.458;9.998;2023-11-21T10:17:28;10.80;;;10.00;;
16634;SDS011;8431;52.458;9.998;2023-11-21T10:20:02;10.05;;;9.35;;
16634;SDS011;8431;52.458;9.998;2023-11-21T10:22:36;10.82;;;9.93;;
16634;SDS011;8431;52.458;9.998;2023-11-21T10:25:06;10.32;;;9.63;;
16634;SDS011;8431;52.458;9.998;2023-11-21T10:27:33;10.70;;;9.90;;
16634;SDS011;8431;52.458;9.998;2023-11-21T10:30:01;10.38;;;9.57;;
16634;SDS011;8431;52.458;9.998;2023-11-21T10:32:29;10.85;;;10.05;;
16634;SDS011;8431;52.458;9.998;2023-11-21T10:34:57;10.52;;;9.73;;
16634;SDS011;8431;52.458;9.998;2023-11-21T10:37:29;10.50;;;9.77;;
16634;SDS011;8431;52.458;9.998;2023-11-21T10:39:57;10.07;;;9.27;;
16634;SDS011;8431;52.458;9.998;2023-11-21T10:42:24;11.45;;;10.65;;
16634;SDS011;8431;52.458;9.998;2023-11-21T10:44:52;11.70;;;8.48;;
16634;SDS011;8431;52.458;9.998;2023-11-21T10:47:19;9.45;;;8.80;;
16634;SDS011;8431;52.458;9.998;2023-11-21T10:49:48;10.00;;;9.15;;
16634;SDS011;8431;52.458;9.998;2023-11-21T10:52:15;10.10;;;9.32;;
16634;SDS011;8431;52.458;9.998;2023-11-21T10:54:45;10.25;;;9.65;;
16634;SDS011;8431;52.458;9.998;2023-11-21T10:57:13;11.10;;;10.20;;
16634;SDS011;8431;52.458;9.998;2023-11-21T10:59:43;9.77;;;9.18;;
16634;SDS011;8431;52.458;9.998;2023-11-21T11:02:16;10.30;;;9.60;;
16634;SDS011;8431;52.458;9.998;2023-11-21T11:04:46;11.70;;;10.73;;
16634;SDS011;8431;52.458;9.998;2023-11-21T11:07:13;11.65;;;10.95;;
16634;SDS011;8431;52.458;9.998;2023-11-21T11:09:42;10.52;;;9.93;;
16634;SDS011;8431;52.458;9.998;2023-11-21T11:12:11;11.82;;;10.93;;
16634;SDS011;8431;52.458;9.998;2023-11-21T11:14:40;10.80;;;10.00;;
16634;SDS011;8431;52.458;9.998;2023-11-21T11:17:08;11.32;;;10.32;;
16634;SDS011;8431;52.458;9.998;2023-11-21T11:19:36;11.07;;;10.38;;
16634;SDS011;8431;52.458;9.998;2023-11-21T11:22:07;12.18;;;11.25;;
16634;SDS011;8431;52.458;9.998;2023-11-21T11:24:42;11.65;;;10.77;;
16634;SDS011;8431;52.458;9.998;2023-11-21T11:27:19;11.48;;;10.68;;
16634;SDS011;8431;52.458;9.998;2023-11-21T11:29:53;10.57;;;9.88;;
16634;SDS011;8431;52.458;9.998;2023-11-21T11:32:25;11.63;;;10.85;;
16634;SDS011;8431;52.458;9.998;2023-11-21T11:35:00;8.48;;;7.88;;
16634;SDS011;8431;52.458;9.998;2023-11-21T11:37:28;9.20;;;8.60;;
16634;SDS011;8431;52.458;9.998;2023-11-21T11:39:56;9.00;;;8.50;;
16634;SDS011;8431;52.458;9.998;2023-11-21T11:42:24;9.60;;;9.00;;
16634;SDS011;8431;52.458;9.998;2023-11-21T11:44:54;8.77;;;8.20;;
16634;SDS011;8431;52.458;9.998;2023-11-21T11:47:23;8.52;;;8.02;;
16634;SDS011;8431;52.458;9.998;2023-11-21T11:49:59;8.98;;;8.38;;
16634;SDS011;8431;52.458;9.998;2023-11-21T11:52:32;8.43;;;8.02;;
16634;SDS011;8431;52.458;9.998;2023-11-21T11:55:00;9.93;;;9.10;;
16634;SDS011;8431;52.458;9.998;2023-11-21T11:57:30;8.57;;;8.13;;
16634;SDS011;8431;52.458;9.998;2023-11-21T12:00:08;8.60;;;8.10;;
16634;SDS011;8431;52.458;9.998;2023-11-21T12:02:37;8.85;;;8.40;;
16634;SDS011;8431;52.458;9.998;2023-11-21T12:05:08;9.13;;;8.45;;
16634;SDS011;8431;52.458;9.998;2023-11-21T12:07:39;8.40;;;7.90;;
16634;SDS011;8431;52.458;9.998;2023-11-21T12:10:07;10.05;;;9.20;;
16634;SDS011;8431;52.458;9.998;2023-11-21T12:12:41;9.45;;;8.95;;
16634;SDS011;8431;52.458;9.998;2023-11-21T12:15:08;8.70;;;8.20;;
16634;SDS011;8431;52.458;9.998;2023-11-21T12:17:35;8.45;;;7.85;;
16634;SDS011;8431;52.458;9.998;2023-11-21T12:20:03;8.88;;;8.27;;
16634;SDS011;8431;52.458;9.998;2023-11-21T12:22:39;8.50;;;8.00;;
16634;SDS011;8431;52.458;9.998;2023-11-21T12:25:06;9.15;;;8.68;;
16634;SDS011;8431;52.458;9.998;2023-11-21T12:27:34;9.20;;;8.50;;
16634;SDS011;8431;52.458;9.998;2023-11-21T12:30:02;8.90;;;8.30;;
16634;SDS011;8431;52.458;9.998;2023-11-21T12:32:30;8.25;;;7.65;;
16634;SDS011;8431;52.458;9.998;2023-11-21T12:38:02;8.23;;;7.72;;
16634;SDS011;8431;52.458;9.998;2023-11-21T12:40:46;8.43;;;7.72;;
16634;SDS011;8431;52.458;9.998;2023-11-21T12:43:58;7.97;;;7.38;;
16634;SDS011;8431;52.458;9.998;2023-11-21T12:46:47;8.55;;;8.05;;
16634;SDS011;8431;52.458;9.998;2023-11-21T12:49:15;7.60;;;7.20;;
16634;SDS011;8431;52.458;9.998;2023-11-21T12:51:43;8.75;;;8.07;;
16634;SDS011;8431;52.458;9.998;2023-11-21T12:54:19;7.88;;;7.47;;
16634;SDS011;8431;52.458;9.998;2023-11-21T12:57:18;8.93;;;8.32;;
16634;SDS011;8431;52.458;9.998;2023-11-21T13:00:16;8.25;;;7.85;;
16634;SDS011;8431;52.458;9.998;2023-11-21T13:03:06;8.45;;;7.97;;
16634;SDS011;8431;52.458;9.998;2023-11-21T13:05:41;8.68;;;8.07;;
16634;SDS011;8431;52.458;9.998;2023-11-21T13:08:10;7.97;;;7.57;;
16634;SDS011;8431;52.458;9.998;2023-11-21T13:10:38;8.82;;;8.32;;
16634;SDS011;8431;52.458;9.998;2023-11-21T13:13:07;7.85;;;7.45;;
16634;SDS011;8431;52.458;9.998;2023-11-21T13:15:35;8.93;;;8.35;;
16634;SDS011;8431;52.458;9.998;2023-11-21T13:18:07;8.38;;;7.82;;
16634;SDS011;8431;52.458;9.998;2023-11-21T13:20:36;8.13;;;7.63;;
16634;SDS011;8431;52.458;9.998;2023-11-21T13:23:07;8.15;;;7.65;;
16634;SDS011;8431;52.458;9.998;2023-11-21T13:25:35;8.57;;;8.07;;
16634;SDS011;8431;52.458;9.998;2023-11-21T13:28:04;8.95;;;8.45;;
16634;SDS011;8431;52.458;9.998;2023-11-21T13:30:31;9.05;;;8.55;;
16634;SDS011;8431;52.458;9.998;2023-11-21T13:32:59;9.45;;;8.85;;
16634;SDS011;8431;52.458;9.998;2023-11-21T13:35:29;8.88;;;8.38;;
16634;SDS011;8431;52.458;9.998;2023-11-21T13:38:02;7.03;;;6.57;;
16634;SDS011;8431;52.458;9.998;2023-11-21T13:40:32;8.13;;;7.63;;
16634;SDS011;8431;52.458;9.998;2023-11-21T13:43:05;7.38;;;6.88;;
16634;SDS011;8431;52.458;9.998;2023-11-21T13:45:35;7.85;;;7.25;;
16634;SDS011;8431;52.458;9.998;2023-11-21T13:48:02;7.40;;;6.90;;
16634;SDS011;8431;52.458;9.998;2023-11-21T13:50:34;7.90;;;7.40;;
16634;SDS011;8431;52.458;9.998;2023-11-21T13:53:01;7.28;;;6.88;;
16634;SDS011;8431;52.458;9.998;2023-11-21T13:55:29;7.47;;;7.07;;
16634;SDS011;8431;52.458;9.998;2023-11-21T13:57:57;9.52;;;8.80;;
16634;SDS011;8431;52.458;9.998;2023-11-21T14:00:24;9.00;;;8.30;;
16634;SDS011;8431;52.458;9.998;2023-11-21T14:03:10;7.43;;;6.90;;
16634;SDS011;8431;52.458;9.998;2023-11-21T14:05:45;7.22;;;6.82;;
16634;SDS011;8431;52.458;9.998;2023-11-21T14:08:16;7.78;;;7.38;;
16634;SDS011;8431;52.458;9.998;2023-11-21T14:10:45;8.68;;;7.95;;
16634;SDS011;8431;52.458;9.998;2023-11-21T14:13:15;7.28;;;6.72;;
16634;SDS011;8431;52.458;9.998;2023-11-21T14:15:43;7.93;;;7.53;;
16634;SDS011;8431;52.458;9.998;2023-11-21T14:18:11;7.88;;;7.45;;
16634;SDS011;8431;52.458;9.998;2023-11-21T14:20:42;7.43;;;7.03;;
16634;SDS011;8431;52.458;9.998;2023-11-21T14:23:10;8.23;;;7.78;;
16634;SDS011;8431;52.458;9.998;2023-11-21T14:25:38;8.43;;;7.93;;
16634;SDS011;8431;52.458;9.998;2023-11-21T14:28:07;7.35;;;6.95;;
16634;SDS011;8431;52.458;9.998;2023-11-21T14:30:37;8.10;;;7.55;;
16634;SDS011;8431;52.458;9.998;2023-11-21T14:33:05;8.27;;;7.78;;
16634;SDS011;8431;52.458;9.998;2023-11-21T14:35:33;7.18;;;6.78;;
16634;SDS011;8431;52.458;9.998;2023-11-21T14:38:00;7.50;;;7.10;;
16634;SDS011;8431;52.458;9.998;2023-11-21T14:40:31;7.82;;;7.43;;
16634;SDS011;8431;52.458;9.998;2023-11-21T14:43:00;9.30;;;8.45;;
16634;SDS011;8431;52.458;9.998;2023-11-21T14:45:30;8.27;;;7.88;;
16634;SDS011;8431;52.458;9.998;2023-11-21T14:47:57;7.93;;;7.43;;
16634;SDS011;8431;52.458;9.998;2023-11-21T14:50:31;8.68;;;8.23;;
16634;SDS011;8431;52.458;9.998;2023-11-21T14:53:22;9.20;;;8.55;;
16634;SDS011;8431;52.458;9.998;2023-11-21T14:56:24;9.68;;;9.18;;
16634;SDS011;8431;52.458;9.998;2023-11-21T14:58:52;8.50;;;8.10;;
16634;SDS011;8431;52.458;9.998;2023-11-21T15:01:22;8.80;;;8.10;;
16634;SDS011;8431;52.458;9.998;2023-11-21T15:04:04;7.30;;;6.90;;
16634;SDS011;8431;52.458;9.998;2023-11-21T15:06:31;7.15;;;6.65;;
16634;SDS011;8431;52.458;9.998;2023-11-21T15:09:53;7.25;;;6.85;;
16634;SDS011;8431;52.458;9.998;2023-11-21T15:12:22;7.50;;;7.00;;
16634;SDS011;8431;52.458;9.998;2023-11-21T15:15:34;8.00;;;7.60;;
16634;SDS011;8431;52.458;9.998;2023-11-21T15:29:13;7.72;;;7.22;;
16634;SDS011;8431;52.458;9.998;2023-11-21T16:04:53;8.00;;;7.45;;
16634;SDS011;8431;52.458;9.998;2023-11-21T16:08:21;7.30;;;6.80;;
16634;SDS011;8431;52.458;9.998;2023-11-21T16:11:20;9.32;;;8.73;;
16634;SDS011;8431;52.458;9.998;2023-11-21T16:13:48;9.05;;;8.27;;
16634;SDS011;8431;52.458;9.998;2023-11-21T16:16:19;8.52;;;7.93;;
16634;SDS011;8431;52.458;9.998;2023-11-21T16:18:46;8.63;;;8.07;;
16634;SDS011;8431;52.458;9.998;2023-11-21T16:21:14;8.98;;;8.38;;
16634;SDS011;8431;52.458;9.998;2023-11-21T16:23:41;9.00;;;8.25;;
16634;SDS011;8431;52.458;9.998;2023-11-21T16:26:08;8.55;;;7.90;;
16634;SDS011;8431;52.458;9.998;2023-11-21T16:28:38;8.85;;;8.35;;
16634;SDS011;8431;52.458;9.998;2023-11-21T16:31:06;8.98;;;8.20;;
16634;SDS011;8431;52.458;9.998;2023-11-21T16:33:35;9.00;;;8.40;;
16634;SDS011;8431;52.458;9.998;2023-11-21T16:36:02;8.63;;;8.13;;
16634;SDS011;8431;52.458;9.998;2023-11-21T16:38:31;8.73;;;8.23;;
16634;SDS011;8431;52.458;9.998;2023-11-21T16:40:59;9.70;;;9.20;;